createdAt,value
2018-01-26T00:00:35.423Z,0
2018-01-26T00:01:15.999Z,0
2018-01-26T00:01:56.574Z,0
2018-01-26T00:02:37.161Z,0
2018-01-26T00:03:17.738Z,0
2018-01-26T00:03:58.322Z,0
2018-01-26T00:04:38.899Z,0
2018-01-26T00:05:19.490Z,0
2018-01-26T00:06:00.050Z,0
2018-01-26T00:06:40.614Z,0
2018-01-26T00:07:21.188Z,0
2018-01-26T00:08:01.754Z,0
2018-01-26T00:08:42.327Z,0
2018-01-26T00:09:22.914Z,0
2018-01-26T00:10:03.523Z,0
2018-01-26T00:10:44.095Z,0
2018-01-26T00:11:24.663Z,0
2018-01-26T00:12:05.223Z,0
2018-01-26T00:12:45.799Z,0
2018-01-26T00:13:26.374Z,0
2018-01-26T00:14:06.948Z,0
2018-01-26T00:14:47.536Z,0
2018-01-26T00:15:28.089Z,0
2018-01-26T00:16:08.653Z,0
2018-01-26T00:16:49.225Z,0
2018-01-26T00:17:29.800Z,0
2018-01-26T00:18:10.411Z,0
2018-01-26T00:18:51.007Z,0
2018-01-26T00:19:31.586Z,0
2018-01-26T00:20:12.174Z,0
2018-01-26T00:20:52.717Z,0
2018-01-26T00:21:33.285Z,0
2018-01-26T00:22:13.849Z,0
2018-01-26T00:22:54.460Z,0
2018-01-26T00:23:35.021Z,0
2018-01-26T00:24:15.623Z,0
2018-01-26T00:24:56.212Z,0
2018-01-26T00:25:36.768Z,0
2018-01-26T00:26:17.363Z,0
2018-01-26T00:26:57.934Z,0
2018-01-26T00:27:38.501Z,0
2018-01-26T00:28:19.059Z,0
2018-01-26T00:28:59.618Z,0
2018-01-26T00:29:40.221Z,0
2018-01-26T00:30:20.785Z,0
2018-01-26T00:31:01.356Z,0
2018-01-26T00:31:41.965Z,0
2018-01-26T00:32:22.499Z,0
2018-01-26T00:33:03.071Z,0
2018-01-26T00:33:43.673Z,0
2018-01-26T00:34:24.244Z,0
2018-01-26T00:35:04.817Z,0
2018-01-26T00:35:45.378Z,0
2018-01-26T00:36:25.948Z,0
2018-01-26T00:37:06.514Z,0
2018-01-26T00:37:47.089Z,0
2018-01-26T00:38:27.702Z,0
2018-01-26T00:39:08.264Z,0
2018-01-26T00:39:48.824Z,0
2018-01-26T00:40:29.410Z,0
2018-01-26T00:41:10.006Z,0
2018-01-26T00:41:50.679Z,0
2018-01-26T00:42:31.256Z,0
2018-01-26T00:43:11.879Z,0
2018-01-26T00:43:52.449Z,0
2018-01-26T00:44:33.026Z,0
2018-01-26T00:45:13.628Z,0
2018-01-26T00:45:54.248Z,0
2018-01-26T00:46:34.850Z,0
2018-01-26T00:47:15.408Z,0
2018-01-26T00:47:55.976Z,0
2018-01-26T00:48:36.629Z,0
2018-01-26T00:49:17.165Z,0
2018-01-26T00:49:57.726Z,0
2018-01-26T00:50:38.333Z,0
2018-01-26T00:51:18.895Z,0
2018-01-26T00:51:59.471Z,0
2018-01-26T00:52:40.055Z,0
2018-01-26T00:53:20.620Z,0
2018-01-26T00:54:01.217Z,0
2018-01-26T00:54:41.780Z,0
2018-01-26T00:55:22.348Z,0
2018-01-26T00:56:02.910Z,0
2018-01-26T00:56:43.466Z,0
2018-01-26T00:57:24.051Z,0
2018-01-26T00:58:04.619Z,0
2018-01-26T00:58:45.191Z,0
2018-01-26T00:59:25.780Z,0
2018-01-26T01:00:06.350Z,0
2018-01-26T01:00:46.911Z,0
2018-01-26T01:01:27.502Z,0
2018-01-26T01:02:08.072Z,0
2018-01-26T01:02:48.636Z,0
2018-01-26T01:03:29.237Z,0
2018-01-26T01:04:09.810Z,0
2018-01-26T01:04:50.441Z,0
2018-01-26T01:05:31.023Z,0
2018-01-26T01:06:11.595Z,0
2018-01-26T01:06:52.157Z,0
2018-01-26T01:07:32.738Z,0
2018-01-26T01:08:13.307Z,0
2018-01-26T01:08:53.909Z,0
2018-01-26T01:09:34.474Z,0
2018-01-26T01:10:15.134Z,0
2018-01-26T01:10:55.736Z,0
2018-01-26T01:11:36.321Z,0
2018-01-26T01:12:16.882Z,0
2018-01-26T01:12:57.458Z,0
2018-01-26T01:13:38.036Z,0
2018-01-26T01:14:18.632Z,0
2018-01-26T01:14:59.214Z,0
2018-01-26T01:15:39.794Z,0
2018-01-26T01:16:20.351Z,0
2018-01-26T01:17:00.906Z,0
2018-01-26T01:17:41.489Z,0
2018-01-26T01:18:22.064Z,0
2018-01-26T01:19:02.656Z,0
2018-01-26T01:19:43.231Z,0
2018-01-26T01:20:23.815Z,0
2018-01-26T01:21:04.395Z,0
2018-01-26T01:21:44.931Z,0
2018-01-26T01:22:25.503Z,0
2018-01-26T01:23:06.085Z,0
2018-01-26T01:23:46.653Z,0
2018-01-26T01:24:27.247Z,0
2018-01-26T01:25:07.843Z,0
2018-01-26T01:25:48.394Z,0
2018-01-26T01:26:28.976Z,0
2018-01-26T01:27:09.543Z,0
2018-01-26T01:27:50.128Z,0
2018-01-26T01:28:30.692Z,0
2018-01-26T01:29:11.342Z,0
2018-01-26T01:29:51.902Z,0
2018-01-26T01:30:32.471Z,0
2018-01-26T01:31:13.043Z,0
2018-01-26T01:31:53.611Z,0
2018-01-26T01:32:34.177Z,0
2018-01-26T01:33:14.747Z,0
2018-01-26T01:33:55.332Z,0
2018-01-26T01:34:35.892Z,0
2018-01-26T01:35:16.466Z,0
2018-01-26T01:35:57.032Z,0
2018-01-26T01:36:37.617Z,0
2018-01-26T01:37:18.180Z,0
2018-01-26T01:37:58.748Z,0
2018-01-26T01:38:39.325Z,0
2018-01-26T01:39:19.931Z,0
2018-01-26T01:40:00.496Z,0
2018-01-26T01:40:41.162Z,0
2018-01-26T01:41:21.750Z,0
2018-01-26T01:42:02.388Z,0
2018-01-26T01:42:42.914Z,0
2018-01-26T01:43:23.488Z,0
2018-01-26T01:44:04.052Z,0
2018-01-26T01:44:44.629Z,0
2018-01-26T01:45:25.226Z,0
2018-01-26T01:46:05.807Z,0
2018-01-26T01:46:46.363Z,0
2018-01-26T01:47:26.948Z,0
2018-01-26T01:48:07.522Z,0
2018-01-26T01:48:48.099Z,0
2018-01-26T01:49:28.677Z,0
2018-01-26T01:50:09.298Z,0
2018-01-26T01:50:49.860Z,0
2018-01-26T01:51:30.462Z,0
2018-01-26T01:52:11.028Z,0
2018-01-26T01:52:51.632Z,0
2018-01-26T01:53:32.201Z,0
2018-01-26T01:54:12.764Z,0
2018-01-26T01:54:53.322Z,0
2018-01-26T01:55:33.900Z,0
2018-01-26T01:56:14.484Z,0
2018-01-26T01:56:55.068Z,0
2018-01-26T01:57:35.617Z,0
2018-01-26T01:58:16.196Z,0
2018-01-26T01:58:56.797Z,0
2018-01-26T01:59:37.384Z,0
2018-01-26T02:00:17.991Z,0
2018-01-26T02:00:58.572Z,0
2018-01-26T02:01:39.131Z,0
2018-01-26T02:02:19.692Z,0
2018-01-26T02:03:00.259Z,0
2018-01-26T02:03:40.832Z,0
2018-01-26T02:04:21.464Z,0
2018-01-26T02:05:02.027Z,0
2018-01-26T02:05:42.616Z,0
2018-01-26T02:06:23.216Z,0
2018-01-26T02:07:03.776Z,0
2018-01-26T02:07:44.338Z,0
2018-01-26T02:08:24.896Z,0
2018-01-26T02:09:05.462Z,0
2018-01-26T02:09:46.017Z,0
2018-01-26T02:10:26.609Z,0
2018-01-26T02:11:07.201Z,0
2018-01-26T02:11:47.763Z,0
2018-01-26T02:12:28.322Z,0
2018-01-26T02:13:08.880Z,0
2018-01-26T02:13:49.454Z,0
2018-01-26T02:14:30.032Z,0
2018-01-26T02:15:10.605Z,0
2018-01-26T02:15:51.226Z,0
2018-01-26T02:16:31.788Z,0
2018-01-26T02:17:12.348Z,0
2018-01-26T02:17:52.941Z,0
2018-01-26T02:18:33.503Z,0
2018-01-26T02:19:14.067Z,0
2018-01-26T02:19:54.639Z,0
2018-01-26T02:20:35.214Z,0
2018-01-26T02:21:15.780Z,0
2018-01-26T02:21:56.356Z,0
2018-01-26T02:22:36.926Z,0
2018-01-26T02:23:17.519Z,0
2018-01-26T02:23:58.085Z,0
2018-01-26T02:24:38.665Z,0
2018-01-26T02:25:19.233Z,0
2018-01-26T02:25:59.799Z,0
2018-01-26T02:26:40.363Z,0
2018-01-26T02:27:20.946Z,0
2018-01-26T02:28:01.544Z,0
2018-01-26T02:28:42.119Z,0
2018-01-26T02:29:22.677Z,0
2018-01-26T02:30:03.246Z,0
2018-01-26T02:30:43.821Z,0
2018-01-26T02:31:24.400Z,0
2018-01-26T02:32:04.965Z,0
2018-01-26T02:32:45.526Z,0
2018-01-26T02:33:26.101Z,0
2018-01-26T02:34:06.669Z,0
2018-01-26T02:34:47.256Z,0
2018-01-26T02:35:27.814Z,0
2018-01-26T02:36:08.384Z,0
2018-01-26T02:36:48.950Z,0
2018-01-26T02:37:29.521Z,0
2018-01-26T02:38:10.093Z,0
2018-01-26T02:38:50.652Z,0
2018-01-26T02:39:31.211Z,0
2018-01-26T02:40:11.781Z,0
2018-01-26T02:40:52.346Z,0
2018-01-26T02:41:32.907Z,0
2018-01-26T02:42:13.481Z,0
2018-01-26T02:42:54.031Z,0
2018-01-26T02:43:34.586Z,0
2018-01-26T02:44:15.156Z,0
2018-01-26T02:44:55.735Z,0
2018-01-26T02:45:36.309Z,0
2018-01-26T02:46:16.862Z,0
2018-01-26T02:46:57.438Z,0
2018-01-26T02:47:38.014Z,0
2018-01-26T02:48:18.594Z,0
2018-01-26T02:48:59.163Z,0
2018-01-26T02:49:39.721Z,0
2018-01-26T02:50:20.298Z,0
2018-01-26T02:51:00.858Z,0
2018-01-26T02:51:41.434Z,0
2018-01-26T02:52:21.988Z,0
2018-01-26T02:53:02.555Z,0
2018-01-26T02:53:43.127Z,0
2018-01-26T02:54:23.712Z,0
2018-01-26T02:55:04.275Z,0
2018-01-26T02:55:44.838Z,0
2018-01-26T02:56:25.407Z,0
2018-01-26T02:57:05.969Z,0
2018-01-26T02:57:46.544Z,0
2018-01-26T02:58:27.098Z,0
2018-01-26T02:59:07.655Z,0
2018-01-26T02:59:48.220Z,0
2018-01-26T03:00:28.780Z,0
2018-01-26T03:01:09.336Z,0
2018-01-26T03:01:49.896Z,0
2018-01-26T03:02:30.460Z,0
2018-01-26T03:03:11.015Z,0
2018-01-26T03:03:51.579Z,0
2018-01-26T03:04:32.138Z,0
2018-01-26T03:05:12.701Z,0
2018-01-26T03:05:53.257Z,0
2018-01-26T03:06:33.847Z,0
2018-01-26T03:07:14.416Z,0
2018-01-26T03:07:55.007Z,0
2018-01-26T03:08:35.597Z,0
2018-01-26T03:09:16.157Z,0
2018-01-26T03:09:56.729Z,0
2018-01-26T03:10:37.291Z,0
2018-01-26T03:11:17.849Z,0
2018-01-26T03:11:58.421Z,0
2018-01-26T03:12:38.989Z,0
2018-01-26T03:13:19.545Z,0
2018-01-26T03:14:00.150Z,0
2018-01-26T03:14:40.710Z,0
2018-01-26T03:15:21.279Z,0
2018-01-26T03:16:01.882Z,0
2018-01-26T03:16:42.440Z,0
2018-01-26T03:17:23.032Z,0
2018-01-26T03:18:03.630Z,0
2018-01-26T03:18:44.178Z,0
2018-01-26T03:19:24.738Z,0
2018-01-26T03:20:05.323Z,0
2018-01-26T03:20:45.903Z,0
2018-01-26T03:21:26.580Z,0
2018-01-26T03:22:07.135Z,0
2018-01-26T03:22:47.701Z,0
2018-01-26T03:23:28.309Z,0
2018-01-26T03:24:08.854Z,0
2018-01-26T03:24:49.433Z,0
2018-01-26T03:25:29.988Z,0
2018-01-26T03:26:10.583Z,0
2018-01-26T03:26:51.137Z,0
2018-01-26T03:27:31.695Z,0
2018-01-26T03:28:12.270Z,0
2018-01-26T03:28:52.813Z,0
2018-01-26T03:29:33.416Z,0
2018-01-26T03:30:13.983Z,0
2018-01-26T03:30:54.554Z,0
2018-01-26T03:31:35.158Z,0
2018-01-26T03:32:15.727Z,0
2018-01-26T03:32:56.300Z,0
2018-01-26T03:33:36.896Z,0
2018-01-26T03:34:17.465Z,0
2018-01-26T03:34:58.057Z,0
2018-01-26T03:35:38.625Z,0
2018-01-26T03:36:19.198Z,0
2018-01-26T03:36:59.770Z,0
2018-01-26T03:37:40.346Z,0
2018-01-26T03:38:20.904Z,0
2018-01-26T03:39:01.477Z,0
2018-01-26T03:39:42.068Z,0
2018-01-26T03:40:22.638Z,0
2018-01-26T03:41:03.208Z,0
2018-01-26T03:41:43.778Z,0
2018-01-26T03:42:24.337Z,0
2018-01-26T03:43:04.896Z,0
2018-01-26T03:43:45.450Z,0
2018-01-26T03:44:26.036Z,0
2018-01-26T03:45:06.606Z,0
2018-01-26T03:45:47.173Z,0
2018-01-26T03:46:27.750Z,0
2018-01-26T03:47:08.329Z,0
2018-01-26T03:47:48.890Z,0
2018-01-26T03:48:29.467Z,0
2018-01-26T03:49:10.042Z,0
2018-01-26T03:49:50.607Z,0
2018-01-26T03:50:31.184Z,0
2018-01-26T03:51:11.777Z,0
2018-01-26T03:51:52.395Z,0
2018-01-26T03:52:32.937Z,0
2018-01-26T03:53:13.504Z,0
2018-01-26T03:53:54.068Z,0
2018-01-26T03:54:34.648Z,0
2018-01-26T03:55:15.223Z,0
2018-01-26T03:55:55.809Z,0
2018-01-26T03:56:36.405Z,0
2018-01-26T03:57:16.972Z,0
2018-01-26T03:57:57.544Z,0
2018-01-26T03:58:38.181Z,0
2018-01-26T03:59:18.745Z,0
2018-01-26T03:59:59.307Z,0
2018-01-26T04:00:39.885Z,0
2018-01-26T04:01:20.460Z,0
2018-01-26T04:02:01.018Z,0
2018-01-26T04:02:41.592Z,0
2018-01-26T04:03:22.161Z,0
2018-01-26T04:04:02.753Z,0
2018-01-26T04:04:43.329Z,0
2018-01-26T04:05:23.894Z,0
2018-01-26T04:06:04.451Z,0
2018-01-26T04:06:45.016Z,0
2018-01-26T04:07:25.619Z,0
2018-01-26T04:08:06.193Z,0
2018-01-26T04:08:46.752Z,0
2018-01-26T04:09:27.331Z,0
2018-01-26T04:10:07.920Z,0
2018-01-26T04:10:48.481Z,0
2018-01-26T04:11:29.079Z,0
2018-01-26T04:12:09.652Z,0
2018-01-26T04:12:50.232Z,0
2018-01-26T04:13:30.844Z,0
2018-01-26T04:14:11.465Z,0
2018-01-26T04:14:52.006Z,0
2018-01-26T04:15:32.598Z,0
2018-01-26T04:16:13.165Z,0
2018-01-26T04:16:53.756Z,0
2018-01-26T04:17:34.510Z,0
2018-01-26T04:18:15.105Z,0
2018-01-26T04:18:55.701Z,0
2018-01-26T04:19:36.265Z,0
2018-01-26T04:20:16.869Z,0
2018-01-26T04:20:57.468Z,0
2018-01-26T04:21:38.045Z,0
2018-01-26T04:22:18.614Z,0
2018-01-26T04:22:59.170Z,0
2018-01-26T04:23:39.724Z,0
2018-01-26T04:24:20.292Z,0
2018-01-26T04:25:00.859Z,0
2018-01-26T04:25:41.440Z,0
2018-01-26T04:26:22.021Z,0
2018-01-26T04:27:02.613Z,0
2018-01-26T04:27:43.179Z,0
2018-01-26T04:28:23.749Z,0
2018-01-26T04:29:04.307Z,0
2018-01-26T04:29:44.883Z,0
2018-01-26T04:30:25.437Z,0
2018-01-26T04:31:06.049Z,0
2018-01-26T04:31:46.617Z,0
2018-01-26T04:32:27.189Z,0
2018-01-26T04:33:07.766Z,0
2018-01-26T04:33:48.364Z,0
2018-01-26T04:34:28.928Z,0
2018-01-26T04:35:09.497Z,0
2018-01-26T04:35:50.065Z,0
2018-01-26T04:36:30.645Z,0
2018-01-26T04:37:11.192Z,0
2018-01-26T04:37:51.765Z,0
2018-01-26T04:38:32.344Z,0
2018-01-26T04:39:12.904Z,0
2018-01-26T04:39:53.465Z,0
2018-01-26T04:40:34.041Z,0
2018-01-26T04:41:14.596Z,0
2018-01-26T04:41:55.206Z,0
2018-01-26T04:42:35.803Z,0
2018-01-26T04:43:16.390Z,0
2018-01-26T04:43:56.955Z,0
2018-01-26T04:44:37.533Z,0
2018-01-26T04:45:18.116Z,0
2018-01-26T04:45:58.672Z,0
2018-01-26T04:46:39.251Z,0
2018-01-26T04:47:19.829Z,0
2018-01-26T04:48:00.395Z,0
2018-01-26T04:48:40.959Z,0
2018-01-26T04:49:21.532Z,0
2018-01-26T04:50:02.117Z,0
2018-01-26T04:50:42.706Z,0
2018-01-26T04:51:23.274Z,0
2018-01-26T04:52:03.873Z,0
2018-01-26T04:52:44.434Z,0
2018-01-26T04:53:25.004Z,0
2018-01-26T04:54:05.568Z,0
2018-01-26T04:54:46.132Z,0
2018-01-26T04:55:26.715Z,0
2018-01-26T04:56:07.294Z,0
2018-01-26T04:56:47.884Z,0
2018-01-26T04:57:28.465Z,0
2018-01-26T04:58:09.030Z,0
2018-01-26T04:58:49.598Z,0
2018-01-26T04:59:30.162Z,0
2018-01-26T05:00:10.735Z,0
2018-01-26T05:00:51.307Z,0
2018-01-26T05:01:31.877Z,0
2018-01-26T05:02:12.465Z,0
2018-01-26T05:02:53.047Z,0
2018-01-26T05:03:33.602Z,0
2018-01-26T05:04:14.177Z,0
2018-01-26T05:04:54.736Z,0
2018-01-26T05:05:35.289Z,0
2018-01-26T05:06:15.855Z,0
2018-01-26T05:06:56.430Z,0
2018-01-26T05:07:37.008Z,0
2018-01-26T05:08:17.573Z,0
2018-01-26T05:08:58.146Z,0
2018-01-26T05:09:38.722Z,0
2018-01-26T05:10:19.273Z,0
2018-01-26T05:10:59.827Z,0
2018-01-26T05:11:40.405Z,0
2018-01-26T05:12:20.972Z,0
2018-01-26T05:13:01.545Z,0
2018-01-26T05:13:42.102Z,0
2018-01-26T05:14:22.663Z,0
2018-01-26T05:15:03.231Z,0
2018-01-26T05:15:43.796Z,0
2018-01-26T05:16:24.366Z,0
2018-01-26T05:17:04.924Z,0
2018-01-26T05:17:45.482Z,0
2018-01-26T05:18:26.041Z,0
2018-01-26T05:19:06.629Z,0
2018-01-26T05:19:47.189Z,0
2018-01-26T05:20:27.746Z,0
2018-01-26T05:21:08.309Z,0
2018-01-26T05:21:48.871Z,0
2018-01-26T05:22:29.428Z,0
2018-01-26T05:23:09.988Z,0
2018-01-26T05:23:50.577Z,0
2018-01-26T05:24:31.143Z,0
2018-01-26T05:25:11.722Z,0
2018-01-26T05:25:52.302Z,0
2018-01-26T05:26:32.867Z,0
2018-01-26T05:27:13.439Z,0
2018-01-26T05:27:54.009Z,0
2018-01-26T05:28:34.581Z,0
2018-01-26T05:29:15.147Z,0
2018-01-26T05:29:55.708Z,0
2018-01-26T05:30:36.286Z,0
2018-01-26T05:31:16.849Z,0
2018-01-26T05:31:57.406Z,0
2018-01-26T05:32:37.976Z,0
2018-01-26T05:33:18.537Z,0
2018-01-26T05:33:59.125Z,0
2018-01-26T05:34:39.700Z,0
2018-01-26T05:35:20.287Z,0
2018-01-26T05:36:00.857Z,0
2018-01-26T05:36:41.423Z,0
2018-01-26T05:37:21.981Z,0
2018-01-26T05:38:02.542Z,0
2018-01-26T05:38:43.110Z,0
2018-01-26T05:39:23.705Z,0
2018-01-26T05:40:04.257Z,0
2018-01-26T05:40:44.827Z,0
2018-01-26T05:41:25.412Z,0
2018-01-26T05:42:06.032Z,0
2018-01-26T05:42:46.600Z,0
2018-01-26T05:43:27.170Z,0
2018-01-26T05:44:07.745Z,0
2018-01-26T05:44:48.301Z,0
2018-01-26T05:45:28.870Z,0
2018-01-26T05:46:09.434Z,0
2018-01-26T05:46:50.005Z,0
2018-01-26T05:47:31.275Z,0
2018-01-26T05:48:11.846Z,0
2018-01-26T05:48:52.448Z,0
2018-01-26T05:49:33.026Z,0
2018-01-26T05:50:13.594Z,0
2018-01-26T05:50:54.174Z,0
2018-01-26T05:51:34.731Z,0
2018-01-26T05:52:15.340Z,0
2018-01-26T05:52:55.911Z,0
2018-01-26T05:53:36.517Z,0
2018-01-26T05:54:17.147Z,0
2018-01-26T05:54:57.788Z,0
2018-01-26T05:55:38.375Z,0
2018-01-26T05:56:18.956Z,0
2018-01-26T05:56:59.565Z,0
2018-01-26T05:57:40.127Z,0
2018-01-26T05:58:20.709Z,0
2018-01-26T05:59:01.268Z,0
2018-01-26T05:59:41.899Z,0
2018-01-26T06:00:22.507Z,0
2018-01-26T06:01:03.071Z,0
2018-01-26T06:01:43.631Z,0
2018-01-26T06:02:24.199Z,0
2018-01-26T06:03:04.761Z,0
2018-01-26T06:03:45.325Z,0
2018-01-26T06:04:25.910Z,0
2018-01-26T06:05:06.475Z,0
2018-01-26T06:05:47.042Z,0
2018-01-26T06:06:27.619Z,0
2018-01-26T06:07:08.184Z,0
2018-01-26T06:07:48.783Z,0
2018-01-26T06:08:29.342Z,0
2018-01-26T06:09:09.903Z,0
2018-01-26T06:09:50.485Z,0
2018-01-26T06:10:31.057Z,0
2018-01-26T06:11:11.648Z,0
2018-01-26T06:11:52.276Z,0
2018-01-26T06:12:32.792Z,0
2018-01-26T06:13:13.362Z,0
2018-01-26T06:13:53.926Z,0
2018-01-26T06:14:34.477Z,0
2018-01-26T06:15:15.048Z,0
2018-01-26T06:15:55.610Z,0
2018-01-26T06:16:36.184Z,0
2018-01-26T06:17:16.790Z,0
2018-01-26T06:17:57.397Z,0
2018-01-26T06:18:37.988Z,0
2018-01-26T06:19:18.546Z,0
2018-01-26T06:19:59.112Z,0
2018-01-26T06:20:39.685Z,0
2018-01-26T06:21:20.274Z,0
2018-01-26T06:22:00.854Z,0
2018-01-26T06:22:41.408Z,0
2018-01-26T06:23:21.967Z,0
2018-01-26T06:24:02.528Z,0
2018-01-26T06:24:43.098Z,0
2018-01-26T06:25:23.649Z,0
2018-01-26T06:26:04.211Z,0
2018-01-26T06:26:44.779Z,0
2018-01-26T06:28:57.579Z,0
2018-01-26T06:29:38.147Z,0
2018-01-26T06:30:18.701Z,0
2018-01-26T06:30:59.268Z,0
2018-01-26T06:31:39.842Z,0
2018-01-26T06:32:20.412Z,0
2018-01-26T06:33:02.241Z,0
2018-01-26T06:33:45.155Z,0
2018-01-26T06:34:27.771Z,0
2018-01-26T06:35:08.355Z,0
2018-01-26T06:35:48.921Z,0
2018-01-26T06:36:29.495Z,0
2018-01-26T06:37:10.061Z,0
2018-01-26T06:37:50.630Z,4
2018-01-26T06:38:31.223Z,0
2018-01-26T06:39:11.787Z,0
2018-01-26T06:39:52.356Z,4
2018-01-26T06:40:32.993Z,0
2018-01-26T06:41:13.582Z,0
2018-01-26T06:41:54.136Z,4
2018-01-26T06:42:34.694Z,4
2018-01-26T06:43:15.244Z,4
2018-01-26T06:43:55.817Z,4
2018-01-26T06:44:36.385Z,0
2018-01-26T06:45:16.961Z,4
2018-01-26T06:45:57.525Z,0
2018-01-26T06:46:38.145Z,4
2018-01-26T06:47:18.716Z,4
2018-01-26T06:47:59.300Z,4
2018-01-26T06:48:39.862Z,8
2018-01-26T06:49:20.424Z,8
2018-01-26T06:50:00.980Z,4
2018-01-26T06:50:41.535Z,4
2018-01-26T06:51:22.104Z,8
2018-01-26T06:52:02.651Z,8
2018-01-26T06:52:43.209Z,12
2018-01-26T06:53:23.775Z,8
2018-01-26T06:54:04.344Z,8
2018-01-26T06:54:44.899Z,8
2018-01-26T06:55:25.559Z,12
2018-01-26T06:56:06.152Z,12
2018-01-26T06:56:47.119Z,12
2018-01-26T06:57:27.848Z,12
2018-01-26T06:58:08.434Z,12
2018-01-26T06:58:49.014Z,12
2018-01-26T06:59:29.573Z,16
2018-01-26T07:00:10.552Z,16
2018-01-26T07:00:51.121Z,12
2018-01-26T07:01:31.691Z,12
2018-01-26T07:02:12.253Z,12
2018-01-26T07:02:52.812Z,12
2018-01-26T07:03:33.372Z,16
2018-01-26T07:04:13.937Z,16
2018-01-26T07:04:54.497Z,16
2018-01-26T07:05:35.084Z,16
2018-01-26T07:06:15.653Z,20
2018-01-26T07:06:56.214Z,16
2018-01-26T07:07:36.972Z,20
2018-01-26T07:08:17.575Z,20
2018-01-26T07:08:58.122Z,20
2018-01-26T07:09:38.712Z,20
2018-01-26T07:10:19.269Z,20
2018-01-26T07:10:59.901Z,24
2018-01-26T07:11:40.474Z,20
2018-01-26T07:12:21.054Z,24
2018-01-26T07:13:01.623Z,24
2018-01-26T07:13:42.206Z,28
2018-01-26T07:14:22.780Z,28
2018-01-26T07:15:03.399Z,32
2018-01-26T07:15:43.994Z,32
2018-01-26T07:16:24.585Z,36
2018-01-26T07:17:05.153Z,40
2018-01-26T07:17:45.775Z,40
2018-01-26T07:18:26.651Z,44
2018-01-26T07:19:18.589Z,48
2018-01-26T07:20:09.836Z,48
2018-01-26T07:20:50.388Z,48
2018-01-26T07:21:30.985Z,48
2018-01-26T07:22:11.680Z,48
2018-01-26T07:22:52.263Z,48
2018-01-26T07:23:32.831Z,52
2018-01-26T07:24:13.389Z,52
2018-01-26T07:24:53.948Z,56
2018-01-26T07:25:34.594Z,56
2018-01-26T07:26:15.158Z,60
2018-01-26T07:26:55.736Z,64
2018-01-26T07:27:36.303Z,64
2018-01-26T07:28:16.886Z,64
2018-01-26T07:28:57.507Z,64
2018-01-26T07:29:38.060Z,60
2018-01-26T07:30:18.654Z,60
2018-01-26T07:30:59.227Z,60
2018-01-26T07:31:39.796Z,60
2018-01-26T07:32:20.520Z,56
2018-01-26T07:33:01.194Z,52
2018-01-26T07:33:41.767Z,56
2018-01-26T07:34:22.348Z,56
2018-01-26T07:35:02.922Z,56
2018-01-26T07:35:43.490Z,60
2018-01-26T07:36:24.194Z,68
2018-01-26T07:37:04.758Z,64
2018-01-26T07:37:45.404Z,68
2018-01-26T07:38:25.978Z,68
2018-01-26T07:39:06.539Z,64
2018-01-26T07:39:47.113Z,64
2018-01-26T07:40:27.693Z,64
2018-01-26T07:41:08.295Z,68
2018-01-26T07:41:48.867Z,72
2018-01-26T07:42:29.438Z,76
2018-01-26T07:43:10.026Z,76
2018-01-26T07:43:50.583Z,84
2018-01-26T07:44:31.178Z,84
2018-01-26T07:45:11.818Z,88
2018-01-26T07:45:52.371Z,92
2018-01-26T07:46:32.963Z,96
2018-01-26T07:47:13.527Z,96
2018-01-26T07:47:54.100Z,100
2018-01-26T07:48:35.180Z,100
2018-01-26T07:49:16.159Z,100
2018-01-26T07:49:56.754Z,100
2018-01-26T07:50:37.490Z,100
2018-01-26T07:51:18.057Z,104
2018-01-26T07:51:58.824Z,108
2018-01-26T07:52:39.393Z,116
2018-01-26T07:53:19.987Z,124
2018-01-26T07:55:37.940Z,144
2018-01-26T07:56:18.473Z,148
2018-01-26T07:56:59.048Z,156
2018-01-26T07:57:39.610Z,164
2018-01-26T07:58:20.180Z,172
2018-01-26T07:59:01.191Z,176
2018-01-26T07:59:41.750Z,180
2018-01-26T08:00:22.319Z,180
2018-01-26T08:01:02.877Z,176
2018-01-26T08:01:43.541Z,176
2018-01-26T08:02:24.156Z,176
2018-01-26T08:03:04.689Z,184
2018-01-26T08:03:45.258Z,176
2018-01-26T08:04:25.858Z,180
2018-01-26T08:05:06.434Z,184
2018-01-26T08:05:46.997Z,188
2018-01-26T08:06:27.590Z,192
2018-01-26T08:07:08.837Z,204
2018-01-26T08:07:49.405Z,216
2018-01-26T08:08:29.960Z,216
2018-01-26T08:09:10.519Z,216
2018-01-26T08:09:51.082Z,220
2018-01-26T08:10:31.651Z,212
2018-01-26T08:11:12.239Z,204
2018-01-26T08:11:52.816Z,204
2018-01-26T08:12:33.358Z,196
2018-01-26T08:13:13.907Z,184
2018-01-26T08:13:54.467Z,176
2018-01-26T08:14:35.047Z,172
2018-01-26T08:15:15.624Z,168
2018-01-26T08:15:56.253Z,172
2018-01-26T08:16:36.837Z,180
2018-01-26T08:17:17.406Z,188
2018-01-26T08:17:58.014Z,192
2018-01-26T08:18:38.580Z,200
2018-01-26T08:19:19.129Z,204
2018-01-26T08:19:59.687Z,208
2018-01-26T08:20:40.272Z,216
2018-01-26T08:21:20.851Z,220
2018-01-26T08:22:01.423Z,220
2018-01-26T08:22:42.020Z,224
2018-01-26T08:23:22.549Z,228
2018-01-26T08:24:03.116Z,228
2018-01-26T08:24:43.676Z,228
2018-01-26T08:25:24.235Z,224
2018-01-26T08:26:04.803Z,216
2018-01-26T08:26:46.048Z,212
2018-01-26T08:27:26.631Z,208
2018-01-26T08:28:07.216Z,200
2018-01-26T08:28:47.815Z,192
2018-01-26T08:29:28.411Z,188
2018-01-26T08:30:08.985Z,184
2018-01-26T08:30:49.541Z,180
2018-01-26T08:31:30.138Z,180
2018-01-26T08:32:10.692Z,188
2018-01-26T08:32:51.271Z,196
2018-01-26T08:33:31.853Z,204
2018-01-26T08:34:12.433Z,212
2018-01-26T08:34:53.030Z,224
2018-01-26T08:35:33.586Z,236
2018-01-26T08:36:14.162Z,256
2018-01-26T08:36:54.728Z,264
2018-01-26T08:37:35.294Z,268
2018-01-26T08:38:15.946Z,272
2018-01-26T08:38:56.488Z,280
2018-01-26T08:39:37.072Z,280
2018-01-26T08:40:17.638Z,280
2018-01-26T08:40:58.197Z,284
2018-01-26T08:41:38.758Z,292
2018-01-26T08:42:19.320Z,300
2018-01-26T08:42:59.877Z,312
2018-01-26T08:43:40.446Z,320
2018-01-26T08:44:21.004Z,328
2018-01-26T08:45:01.572Z,332
2018-01-26T08:45:42.149Z,336
2018-01-26T08:46:22.867Z,340
2018-01-26T08:47:03.449Z,352
2018-01-26T08:47:44.000Z,368
2018-01-26T08:48:24.564Z,384
2018-01-26T08:49:05.121Z,396
2018-01-26T08:49:45.669Z,396
2018-01-26T08:50:26.259Z,392
2018-01-26T08:51:06.933Z,376
2018-01-26T08:51:47.524Z,364
2018-01-26T08:52:28.099Z,352
2018-01-26T08:53:08.687Z,340
2018-01-26T08:53:49.266Z,332
2018-01-26T08:54:29.881Z,320
2018-01-26T08:55:10.407Z,312
2018-01-26T08:55:51.001Z,308
2018-01-26T08:56:31.569Z,300
2018-01-26T08:57:12.135Z,296
2018-01-26T08:57:52.704Z,296
2018-01-26T08:58:33.260Z,296
2018-01-26T08:59:13.820Z,296
2018-01-26T08:59:54.375Z,292
2018-01-26T09:00:34.992Z,296
2018-01-26T09:01:15.496Z,296
2018-01-26T09:01:56.054Z,292
2018-01-26T09:02:36.639Z,292
2018-01-26T09:03:17.228Z,288
2018-01-26T09:03:57.828Z,284
2018-01-26T09:04:38.371Z,284
2018-01-26T09:05:18.972Z,288
2018-01-26T09:05:59.528Z,284
2018-01-26T09:06:40.167Z,280
2018-01-26T09:07:20.751Z,280
2018-01-26T09:08:01.311Z,276
2018-01-26T09:08:41.876Z,280
2018-01-26T09:09:22.458Z,284
2018-01-26T09:10:03.018Z,292
2018-01-26T09:10:43.567Z,300
2018-01-26T09:11:24.166Z,300
2018-01-26T09:12:04.734Z,300
2018-01-26T09:12:45.343Z,292
2018-01-26T09:13:25.863Z,288
2018-01-26T09:14:06.420Z,284
2018-01-26T09:14:47.059Z,280
2018-01-26T09:15:27.722Z,272
2018-01-26T09:16:08.309Z,268
2018-01-26T09:16:48.883Z,264
2018-01-26T09:17:29.456Z,264
2018-01-26T09:18:10.016Z,260
2018-01-26T09:18:50.580Z,264
2018-01-26T09:19:31.199Z,276
2018-01-26T09:20:11.769Z,280
2018-01-26T09:20:52.343Z,288
2018-01-26T09:21:32.928Z,292
2018-01-26T09:22:13.499Z,300
2018-01-26T09:22:54.064Z,308
2018-01-26T09:23:34.633Z,316
2018-01-26T09:24:15.198Z,324
2018-01-26T09:24:55.836Z,332
2018-01-26T09:25:36.420Z,336
2018-01-26T09:26:16.988Z,344
2018-01-26T09:26:57.537Z,352
2018-01-26T09:27:38.117Z,356
2018-01-26T09:28:18.676Z,372
2018-01-26T09:28:59.234Z,388
2018-01-26T09:29:39.881Z,412
2018-01-26T09:30:20.364Z,432
2018-01-26T09:31:00.922Z,448
2018-01-26T09:31:41.481Z,460
2018-01-26T09:32:22.075Z,472
2018-01-26T09:33:02.639Z,488
2018-01-26T09:33:43.203Z,508
2018-01-26T09:34:23.782Z,540
2018-01-26T09:35:04.356Z,576
2018-01-26T09:35:44.938Z,600
2018-01-26T09:36:25.497Z,632
2018-01-26T09:37:06.074Z,644
2018-01-26T09:37:46.720Z,652
2018-01-26T09:38:27.313Z,636
2018-01-26T09:39:07.864Z,612
2018-01-26T09:39:48.439Z,592
2018-01-26T09:40:29.083Z,576
2018-01-26T09:41:09.669Z,560
2018-01-26T09:41:50.244Z,548
2018-01-26T09:42:30.807Z,544
2018-01-26T09:43:11.392Z,544
2018-01-26T09:43:52.020Z,540
2018-01-26T09:44:32.571Z,532
2018-01-26T09:45:13.159Z,524
2018-01-26T09:45:53.712Z,512
2018-01-26T09:46:34.408Z,504
2018-01-26T09:47:14.982Z,500
2018-01-26T09:47:55.541Z,488
2018-01-26T09:48:36.150Z,476
2018-01-26T09:49:16.678Z,472
2018-01-26T09:49:57.320Z,484
2018-01-26T09:50:37.850Z,492
2018-01-26T09:51:18.486Z,496
2018-01-26T09:51:59.075Z,500
2018-01-26T09:52:39.695Z,504